Etusivu
METAR-TAF:

METAR-TAF

Lentoasemat :

Ventspils, Latvia

Leveyspiiri: 57-21-28N, Pituuspiiri: 021-32-39E, korkeus merenpinnasta: 6 m

Tämänhetkinen sää

Tämä raportti tehtiin 29 minuuttia sitten, kello 15.20 UTC
Tuuli 6 kn koillisesta
Lämpötila 14°C
Kosteus 94%
Ilmanpaine 1020 hPa
Näkyvyys 10 km tai enemmän
Hajanaisia pilviä 1300 ft:n korkeudessa
Hajonneita pilviä 3100 ft:n korkeudessa
Pilvistä 5000 ft:n korkeudessa
heikkoa sadetta

METAR: EVVA 211520Z AUTO 05006KT 9999 -RA SCT013 BKN031 OVC050 14/13 Q1020

Aika: 18:49 (15:49 UTC)


TAF: puuttuu

Säähavainnot ja -ennusteet yli 4000 lentoasemalta (METAR- ja TAF-raportit).

Käytössä olevat sääasemat on merkitty karttaan keltaisilla ja punaisilla pisteillä.

Aseta hiiri pisteen päälle nähdäksesi sääaseman nimen.

Klikkaa sitten nähdäksesi säähavainnot ja -ennusteet.

Kartan vaihtaminen: klikkaa mustalla rastilla varustettuja vihreitä pisteitä, niin voit zoomata sisään; viivalla varustettua vihreää pistettä, niin voit zoomata ulos tai vihreitä nuolia, niin pääset viereisille kartoille.


METAR-TAF: